createdAt,value
2017-07-19T00:01:39.369Z,65.63
2017-07-19T00:04:09.209Z,65.92
2017-07-19T00:06:38.272Z,66.55
2017-07-19T00:09:08.111Z,66.90
2017-07-19T00:11:37.182Z,66.99
2017-07-19T00:14:07.056Z,66.76
2017-07-19T00:16:36.352Z,67.03
2017-07-19T00:19:05.410Z,66.63
2017-07-19T00:21:34.443Z,66.71
2017-07-19T00:24:03.540Z,66.82
2017-07-19T00:26:32.555Z,66.60
2017-07-19T00:29:02.411Z,66.77
2017-07-19T00:31:31.483Z,66.94
2017-07-19T00:34:01.300Z,67.17
2017-07-19T00:36:30.380Z,67.47
2017-07-19T00:39:00.208Z,67.84
2017-07-19T00:41:29.259Z,67.77
2017-07-19T00:43:58.335Z,67.89
2017-07-19T00:46:27.395Z,67.76
2017-07-19T00:48:56.711Z,67.59
2017-07-19T00:51:25.802Z,67.53
2017-07-19T00:53:54.844Z,67.68
2017-07-19T00:56:23.900Z,67.90
2017-07-19T00:58:52.984Z,67.94
2017-07-19T01:01:22.066Z,68.24
2017-07-19T01:03:51.883Z,68.49
2017-07-19T01:06:20.968Z,68.43
2017-07-19T01:08:50.036Z,68.48
2017-07-19T01:11:19.095Z,68.55
2017-07-19T01:13:48.158Z,68.91
2017-07-19T01:16:17.216Z,69.13
2017-07-19T01:18:46.293Z,69.31
2017-07-19T01:21:15.729Z,68.91
2017-07-19T01:23:44.772Z,69.16
2017-07-19T01:26:13.847Z,69.19
2017-07-19T01:28:43.143Z,69.15
2017-07-19T01:31:12.220Z,69.30
2017-07-19T01:33:41.283Z,69.20
2017-07-19T01:36:10.381Z,69.25
2017-07-19T01:38:40.834Z,69.61
2017-07-19T01:41:09.910Z,69.96
2017-07-19T01:43:38.952Z,69.97
2017-07-19T01:46:08.028Z,70.23
2017-07-19T01:48:37.068Z,70.38
2017-07-19T01:51:06.143Z,70.45
2017-07-19T01:53:35.220Z,70.63
2017-07-19T01:56:04.292Z,70.68
2017-07-19T01:58:33.376Z,70.89
2017-07-19T02:01:02.419Z,71.27
2017-07-19T02:03:31.533Z,71.56
2017-07-19T02:06:00.592Z,71.73
2017-07-19T02:08:29.648Z,71.71
2017-07-19T02:10:58.739Z,71.35
2017-07-19T02:13:27.823Z,71.34
2017-07-19T02:15:57.133Z,71.41
2017-07-19T02:18:26.215Z,71.45
2017-07-19T02:20:55.443Z,71.39
2017-07-19T02:23:24.501Z,71.69
2017-07-19T02:25:53.565Z,71.76
2017-07-19T02:28:22.692Z,71.70
2017-07-19T02:30:51.771Z,71.76
2017-07-19T02:33:20.835Z,71.42
2017-07-19T02:35:49.892Z,71.60
2017-07-19T02:38:18.946Z,71.49
2017-07-19T02:40:48.004Z,71.47
2017-07-19T02:43:17.064Z,71.62
2017-07-19T02:45:46.124Z,71.68
2017-07-19T02:48:15.203Z,72.07
2017-07-19T02:50:44.489Z,72.07
2017-07-19T02:53:13.578Z,72.40
2017-07-19T02:55:42.635Z,72.29
2017-07-19T02:58:11.739Z,72.53
2017-07-19T03:00:40.801Z,72.71
2017-07-19T03:03:09.899Z,72.63
2017-07-19T03:05:38.961Z,72.73
2017-07-19T03:08:08.076Z,72.65
2017-07-19T03:10:37.097Z,72.98
2017-07-19T03:13:06.207Z,72.86
2017-07-19T03:15:35.268Z,72.88
2017-07-19T03:18:04.355Z,73.07
2017-07-19T03:20:33.391Z,73.03
2017-07-19T03:23:02.484Z,72.57
2017-07-19T03:25:31.565Z,72.79
2017-07-19T03:28:00.649Z,72.96
2017-07-19T03:30:29.688Z,73.08
2017-07-19T03:32:58.772Z,72.75
2017-07-19T03:35:27.860Z,72.67
2017-07-19T03:37:56.924Z,72.89
2017-07-19T03:40:26.036Z,72.85
2017-07-19T03:42:55.118Z,72.64
2017-07-19T03:45:24.197Z,73.07
2017-07-19T03:47:53.504Z,73.14
2017-07-19T03:50:22.785Z,73.08
2017-07-19T03:52:51.824Z,73.07
2017-07-19T03:55:20.882Z,73.59
2017-07-19T03:57:49.976Z,73.25
2017-07-19T04:00:19.081Z,73.38
2017-07-19T04:02:48.153Z,73.69
2017-07-19T04:05:17.249Z,73.69
2017-07-19T04:07:46.337Z,73.50
2017-07-19T04:10:15.452Z,73.46
2017-07-19T04:12:44.524Z,73.39
2017-07-19T04:15:13.637Z,73.52
2017-07-19T04:17:42.699Z,73.49
2017-07-19T04:20:11.796Z,73.43
2017-07-19T04:22:40.856Z,73.33
2017-07-19T04:25:10.126Z,73.16
2017-07-19T04:27:39.204Z,72.96
2017-07-19T04:30:08.305Z,73.19
2017-07-19T04:32:37.347Z,73.06
2017-07-19T04:35:06.414Z,72.95
2017-07-19T04:37:35.472Z,73.03
2017-07-19T04:40:04.756Z,72.60
2017-07-19T04:42:33.844Z,72.57
2017-07-19T04:45:02.946Z,72.19
2017-07-19T04:47:31.992Z,71.91
2017-07-19T04:50:01.074Z,71.86
2017-07-19T04:52:30.186Z,71.83
2017-07-19T04:54:59.225Z,71.40
2017-07-19T04:57:28.319Z,71.38
2017-07-19T04:59:57.408Z,71.54
2017-07-19T05:02:26.470Z,71.55
2017-07-19T05:04:55.669Z,71.55
2017-07-19T05:07:24.736Z,71.28
2017-07-19T05:09:53.829Z,71.42
2017-07-19T05:12:23.758Z,71.26
2017-07-19T05:14:52.792Z,71.19
2017-07-19T05:17:22.038Z,70.85
2017-07-19T05:19:51.101Z,70.69
2017-07-19T05:37:41.173Z,69.79
2017-07-19T05:40:10.283Z,69.53
2017-07-19T05:42:39.316Z,68.72
2017-07-19T05:45:08.372Z,68.68
2017-07-19T05:47:37.448Z,68.47
2017-07-19T05:50:06.531Z,68.31
2017-07-19T05:52:35.594Z,68.18
2017-07-19T05:55:04.647Z,68.04
2017-07-19T05:57:33.716Z,67.89
2017-07-19T06:00:02.853Z,67.86
2017-07-19T06:02:31.907Z,67.41
2017-07-19T06:05:01.162Z,67.00
2017-07-19T06:07:30.300Z,66.53
2017-07-19T06:09:59.395Z,66.49
2017-07-19T06:12:28.463Z,65.79
2017-07-19T06:14:57.522Z,65.58
2017-07-19T06:17:26.612Z,65.35
2017-07-19T06:19:55.687Z,64.76
2017-07-19T06:22:24.744Z,63.58
2017-07-19T06:24:53.816Z,63.38
2017-07-19T06:27:22.884Z,63.45
2017-07-19T06:29:51.948Z,63.55
2017-07-19T06:32:21.019Z,63.42
2017-07-19T06:34:50.069Z,63.56
2017-07-19T06:37:19.154Z,64.01
2017-07-19T06:39:48.399Z,63.76
2017-07-19T06:42:17.450Z,63.31
2017-07-19T06:44:46.507Z,63.22
2017-07-19T06:47:15.632Z,63.37
2017-07-19T06:49:44.691Z,63.47
2017-07-19T06:52:41.440Z,63.52
2017-07-19T06:55:10.507Z,63.21
2017-07-19T06:57:39.550Z,62.78
2017-07-19T07:00:08.645Z,62.16
2017-07-19T07:02:37.711Z,61.66
2017-07-19T07:05:06.760Z,62.10
2017-07-19T07:07:35.877Z,60.41
2017-07-19T07:10:04.944Z,60.91
2017-07-19T07:12:34.208Z,60.01
2017-07-19T07:15:03.325Z,60.49
2017-07-19T07:17:32.376Z,60.12
2017-07-19T07:20:01.445Z,58.99
2017-07-19T07:22:30.514Z,58.57
2017-07-19T07:24:59.560Z,58.39
2017-07-19T07:27:28.607Z,58.30
2017-07-19T07:29:57.673Z,55.98
2017-07-19T07:32:26.745Z,55.37
2017-07-19T07:34:55.780Z,53.39
2017-07-19T07:37:24.864Z,52.29
2017-07-19T07:39:53.936Z,51.06
2017-07-19T07:42:23.011Z,50.79
2017-07-19T07:44:52.058Z,51.03
2017-07-19T07:47:21.100Z,50.06
2017-07-19T07:49:50.176Z,48.40
2017-07-19T07:52:19.245Z,48.26
2017-07-19T07:54:48.280Z,47.71
2017-07-19T07:57:17.350Z,47.29
2017-07-19T07:59:46.404Z,46.64
2017-07-19T08:02:15.485Z,46.43
2017-07-19T08:04:44.528Z,45.60
2017-07-19T08:07:13.607Z,46.75
2017-07-19T08:09:42.759Z,45.33
2017-07-19T08:12:11.820Z,45.19
2017-07-19T08:14:40.876Z,45.44
2017-07-19T08:17:09.924Z,46.06
2017-07-19T08:19:39.005Z,44.63
2017-07-19T08:22:08.052Z,45.13
2017-07-19T08:24:37.134Z,44.70
2017-07-19T08:27:06.200Z,44.26
2017-07-19T08:29:35.239Z,42.82
2017-07-19T08:32:04.327Z,43.54
2017-07-19T08:34:33.415Z,43.80
2017-07-19T08:37:02.472Z,43.26
2017-07-19T08:39:31.550Z,43.15
2017-07-19T08:42:00.639Z,43.01
2017-07-19T08:44:29.697Z,42.66
2017-07-19T08:46:58.772Z,41.72
2017-07-19T08:49:27.836Z,42.70
2017-07-19T08:51:56.911Z,42.38
2017-07-19T08:54:25.976Z,42.87
2017-07-19T08:56:55.039Z,41.85
2017-07-19T08:59:24.096Z,41.03
2017-07-19T09:01:53.216Z,41.20
2017-07-19T09:04:22.235Z,41.74
2017-07-19T09:06:51.529Z,40.83
2017-07-19T09:09:20.580Z,39.70
2017-07-19T09:11:49.623Z,40.29
2017-07-19T09:14:18.712Z,38.88
2017-07-19T09:16:47.768Z,38.25
2017-07-19T09:19:16.827Z,38.47
2017-07-19T09:21:45.868Z,38.78
2017-07-19T09:24:14.929Z,37.94
2017-07-19T09:26:43.978Z,37.87
2017-07-19T09:29:13.076Z,37.90
2017-07-19T09:31:42.183Z,37.52
2017-07-19T09:34:11.202Z,37.40
2017-07-19T09:36:40.467Z,38.36
2017-07-19T09:39:09.544Z,37.53
2017-07-19T09:41:38.611Z,38.10
2017-07-19T09:44:07.796Z,38.64
2017-07-19T09:46:36.885Z,38.35
2017-07-19T09:49:05.919Z,38.05
2017-07-19T09:51:34.980Z,37.88
2017-07-19T09:54:04.038Z,37.97
2017-07-19T09:56:33.118Z,38.53
2017-07-19T09:59:02.173Z,37.83
2017-07-19T10:01:31.225Z,37.69
2017-07-19T10:04:00.284Z,37.91
2017-07-19T10:06:29.366Z,37.25
2017-07-19T10:08:58.427Z,37.16
2017-07-19T10:11:27.478Z,37.59
2017-07-19T10:13:56.537Z,36.28
2017-07-19T10:16:25.600Z,36.47
2017-07-19T10:18:54.650Z,35.07
2017-07-19T10:21:23.710Z,35.20
2017-07-19T10:23:52.780Z,34.73
2017-07-19T10:26:21.854Z,36.01
2017-07-19T10:28:50.895Z,35.64
2017-07-19T10:31:19.951Z,34.11
2017-07-19T10:33:49.023Z,34.90
2017-07-19T10:36:18.107Z,34.92
2017-07-19T10:38:47.172Z,34.86
2017-07-19T10:41:16.235Z,33.94
2017-07-19T10:43:45.423Z,34.00
2017-07-19T10:46:14.492Z,34.71
2017-07-19T10:48:43.565Z,33.72
2017-07-19T10:51:12.620Z,34.64
2017-07-19T10:53:41.684Z,34.93
2017-07-19T10:56:10.746Z,34.08
2017-07-19T10:58:39.805Z,34.84
2017-07-19T11:01:08.853Z,34.71
2017-07-19T11:03:37.947Z,34.75
2017-07-19T11:06:07.018Z,34.97
2017-07-19T11:08:36.051Z,35.42
2017-07-19T11:11:05.138Z,35.19
2017-07-19T11:13:34.168Z,35.80
2017-07-19T11:16:03.251Z,35.89
2017-07-19T11:18:32.303Z,35.66
2017-07-19T11:21:01.382Z,34.44
2017-07-19T11:23:30.435Z,34.76
2017-07-19T11:25:59.476Z,35.39
2017-07-19T11:28:28.564Z,35.23
2017-07-19T11:30:57.665Z,35.24
2017-07-19T11:33:26.756Z,35.09
2017-07-19T11:35:55.824Z,36.19
2017-07-19T11:38:24.851Z,35.43
2017-07-19T11:40:53.945Z,35.10
2017-07-19T11:43:22.988Z,34.56
2017-07-19T11:45:52.076Z,35.29
2017-07-19T11:48:21.168Z,34.46
2017-07-19T11:50:50.192Z,34.41
2017-07-19T11:53:19.314Z,36.00
2017-07-19T11:55:48.367Z,35.91
2017-07-19T11:58:17.400Z,34.68
2017-07-19T12:00:46.463Z,34.86
2017-07-19T12:03:15.524Z,33.49
2017-07-19T12:05:45.200Z,34.89
2017-07-19T12:08:14.252Z,32.62
2017-07-19T12:10:43.323Z,33.68
2017-07-19T12:13:12.407Z,33.25
2017-07-19T12:15:41.437Z,32.80
2017-07-19T12:18:10.623Z,33.20
2017-07-19T12:20:39.796Z,32.86
2017-07-19T12:23:08.891Z,33.15
2017-07-19T12:25:37.955Z,33.40
2017-07-19T12:28:06.984Z,33.73
2017-07-19T12:30:36.056Z,34.69
2017-07-19T12:33:05.116Z,34.50
2017-07-19T12:35:34.155Z,33.00
2017-07-19T12:38:03.214Z,34.02
2017-07-19T12:40:32.294Z,34.09
2017-07-19T12:43:01.338Z,34.63
2017-07-19T12:45:30.408Z,33.47
2017-07-19T12:47:59.483Z,33.27
2017-07-19T12:50:28.558Z,33.96
2017-07-19T12:52:57.631Z,34.04
2017-07-19T12:55:26.647Z,32.27
2017-07-19T12:57:55.708Z,32.24
2017-07-19T13:00:24.769Z,32.09
2017-07-19T13:02:53.804Z,32.66
2017-07-19T13:05:22.893Z,33.02
2017-07-19T13:07:51.922Z,33.39
2017-07-19T13:10:20.984Z,33.22
2017-07-19T13:12:50.021Z,33.92
2017-07-19T13:15:19.097Z,33.34
2017-07-19T13:17:48.192Z,33.48
2017-07-19T13:20:17.280Z,32.09
2017-07-19T13:22:46.312Z,32.67
2017-07-19T13:25:15.340Z,32.80
2017-07-19T13:27:44.413Z,33.14
2017-07-19T13:30:13.536Z,33.65
2017-07-19T13:32:42.836Z,32.74
2017-07-19T13:35:11.926Z,33.66
2017-07-19T13:37:40.976Z,32.80
2017-07-19T13:40:10.076Z,33.33
2017-07-19T13:42:39.132Z,33.84
2017-07-19T13:45:08.380Z,34.62
2017-07-19T13:47:37.472Z,33.58
2017-07-19T13:50:06.558Z,33.67
2017-07-19T13:52:35.623Z,33.28
2017-07-19T13:55:04.688Z,34.22
2017-07-19T13:57:33.721Z,34.04
2017-07-19T14:00:02.801Z,34.55
2017-07-19T14:02:31.852Z,34.41
2017-07-19T14:05:00.905Z,34.17
2017-07-19T14:07:29.977Z,34.87
2017-07-19T14:09:58.997Z,35.10
2017-07-19T14:12:28.064Z,35.21
2017-07-19T14:14:57.124Z,35.61
2017-07-19T14:17:26.180Z,34.51
2017-07-19T14:19:55.211Z,35.10
2017-07-19T14:22:24.294Z,35.93
2017-07-19T14:24:53.349Z,35.88
2017-07-19T14:27:22.380Z,36.27
2017-07-19T14:29:51.455Z,36.47
2017-07-19T14:32:20.511Z,37.29
2017-07-19T14:34:49.548Z,37.12
2017-07-19T14:37:18.639Z,37.38
2017-07-19T14:39:47.668Z,38.22
2017-07-19T14:42:16.769Z,38.12
2017-07-19T14:44:45.804Z,38.50
2017-07-19T14:47:14.855Z,38.78
2017-07-19T14:49:43.949Z,38.94
2017-07-19T14:52:13.012Z,39.22
2017-07-19T14:54:42.085Z,39.79
2017-07-19T14:57:11.127Z,38.39
2017-07-19T14:59:40.191Z,39.98
2017-07-19T15:02:09.259Z,41.91
2017-07-19T15:04:38.312Z,44.04
2017-07-19T15:07:07.380Z,47.72
2017-07-19T15:09:36.478Z,58.20
2017-07-19T15:12:05.786Z,62.33
2017-07-19T15:14:34.842Z,65.87
2017-07-19T15:17:03.912Z,66.30
2017-07-19T15:19:32.959Z,71.67
2017-07-19T15:22:02.036Z,71.44
2017-07-19T15:24:31.292Z,71.80
2017-07-19T15:27:00.351Z,73.37
2017-07-19T15:29:29.406Z,75.33
2017-07-19T15:31:58.523Z,74.53
2017-07-19T15:34:27.585Z,76.45
2017-07-19T15:36:56.627Z,77.06
2017-07-19T15:39:25.724Z,78.49
2017-07-19T15:41:54.789Z,78.68
2017-07-19T15:44:23.875Z,79.99
2017-07-19T15:46:52.942Z,80.33
2017-07-19T15:49:21.995Z,83.00
2017-07-19T15:51:51.073Z,80.77
2017-07-19T15:54:20.132Z,82.75
2017-07-19T15:56:49.221Z,83.62
2017-07-19T15:59:18.263Z,83.61
2017-07-19T16:01:47.345Z,83.61
2017-07-19T16:04:16.432Z,83.32
2017-07-19T16:06:45.487Z,83.33
2017-07-19T16:09:14.556Z,83.47
2017-07-19T16:11:43.628Z,83.64
2017-07-19T16:14:12.699Z,85.65
2017-07-19T16:16:41.818Z,85.15
2017-07-19T16:19:10.856Z,82.96
2017-07-19T16:21:39.936Z,83.34
2017-07-19T16:24:08.992Z,84.07
2017-07-19T16:26:38.036Z,83.16
2017-07-19T16:29:07.147Z,83.57
2017-07-19T16:31:36.188Z,84.21
2017-07-19T16:34:05.245Z,83.85
2017-07-19T16:36:34.288Z,84.32
2017-07-19T16:39:03.366Z,84.45
2017-07-19T16:41:32.428Z,83.88
2017-07-19T16:44:01.505Z,84.25
2017-07-19T16:46:30.555Z,84.01
2017-07-19T16:48:59.624Z,84.04
2017-07-19T16:51:28.672Z,84.15
2017-07-19T16:53:58.532Z,83.23
2017-07-19T16:56:27.617Z,82.78
2017-07-19T16:58:56.675Z,81.81
2017-07-19T17:01:25.716Z,82.75
2017-07-19T17:03:54.776Z,82.68
2017-07-19T17:06:24.596Z,82.12
2017-07-19T17:08:53.627Z,81.80
2017-07-19T17:11:22.700Z,82.13
2017-07-19T17:13:51.773Z,82.77
2017-07-19T17:16:21.599Z,83.38
2017-07-19T17:18:50.674Z,81.88
2017-07-19T17:21:19.729Z,83.39
2017-07-19T17:23:48.789Z,82.81
2017-07-19T17:26:17.858Z,82.92
2017-07-19T17:28:47.944Z,84.09
2017-07-19T17:31:17.337Z,84.36
2017-07-19T17:33:46.389Z,84.85
2017-07-19T17:36:15.533Z,84.70
2017-07-19T17:38:44.579Z,84.24
2017-07-19T17:41:13.677Z,83.99
2017-07-19T17:43:42.743Z,83.42
2017-07-19T17:46:11.819Z,83.85
2017-07-19T17:48:40.949Z,83.18
2017-07-19T17:51:10.810Z,84.44
2017-07-19T17:53:39.867Z,84.36
2017-07-19T17:56:09.108Z,83.30
2017-07-19T17:58:38.184Z,82.38
2017-07-19T18:01:07.266Z,82.62
2017-07-19T18:03:36.342Z,83.28
2017-07-19T18:06:06.187Z,84.16
2017-07-19T18:08:35.273Z,84.10
2017-07-19T18:11:04.324Z,83.91
2017-07-19T18:13:33.398Z,83.75
2017-07-19T18:16:02.474Z,82.69
2017-07-19T18:18:31.519Z,82.94
2017-07-19T18:21:00.603Z,82.77
2017-07-19T18:23:29.675Z,83.57
2017-07-19T18:25:58.980Z,83.94
2017-07-19T18:28:28.043Z,83.50
2017-07-19T18:30:57.135Z,84.43
2017-07-19T18:33:26.223Z,83.73
2017-07-19T18:35:55.295Z,84.39
2017-07-19T18:38:25.146Z,84.57
2017-07-19T18:40:54.201Z,84.41
2017-07-19T18:43:24.064Z,83.80
2017-07-19T18:45:53.131Z,83.74
2017-07-19T18:48:22.183Z,83.24
2017-07-19T18:50:51.254Z,82.85
2017-07-19T18:53:20.300Z,83.27
2017-07-19T18:55:50.152Z,83.11
2017-07-19T18:58:19.225Z,83.95
2017-07-19T19:00:48.288Z,83.19
2017-07-19T19:03:17.359Z,84.23
2017-07-19T19:05:46.475Z,83.01
2017-07-19T19:08:15.765Z,83.46
2017-07-19T19:10:44.842Z,83.62
2017-07-19T19:13:13.932Z,83.08
2017-07-19T19:15:42.997Z,82.94
2017-07-19T19:18:12.069Z,82.94
2017-07-19T19:20:41.121Z,82.33
2017-07-19T19:23:10.225Z,82.97
2017-07-19T19:25:39.291Z,82.15
2017-07-19T19:28:08.444Z,81.93
2017-07-19T19:30:37.489Z,82.43
2017-07-19T19:33:06.556Z,82.81
2017-07-19T19:35:36.403Z,82.84
2017-07-19T19:38:05.471Z,81.95
2017-07-19T19:40:34.517Z,82.07
2017-07-19T19:43:03.609Z,82.08
2017-07-19T19:45:32.660Z,82.35
2017-07-19T19:48:01.701Z,82.28
2017-07-19T19:50:30.778Z,82.41
2017-07-19T19:52:59.845Z,82.22
2017-07-19T19:55:29.028Z,81.94
2017-07-19T19:57:58.862Z,81.91
2017-07-19T20:00:27.916Z,82.49
2017-07-19T20:02:56.984Z,82.49
2017-07-19T20:05:26.068Z,82.19
2017-07-19T20:07:55.116Z,82.32
2017-07-19T20:10:24.648Z,82.76
2017-07-19T20:12:53.708Z,82.65
2017-07-19T20:15:22.763Z,82.50
2017-07-19T20:17:51.844Z,82.97
2017-07-19T20:20:20.902Z,82.82
2017-07-19T20:22:50.725Z,82.12
2017-07-19T20:25:19.785Z,82.08
2017-07-19T20:27:48.860Z,81.25
2017-07-19T20:30:17.944Z,81.42
2017-07-19T20:32:47.024Z,81.58
2017-07-19T20:35:16.372Z,81.90
2017-07-19T20:37:45.417Z,82.29
2017-07-19T20:40:14.513Z,81.67
2017-07-19T20:42:43.568Z,82.05
2017-07-19T20:45:12.897Z,81.79
2017-07-19T20:47:42.752Z,82.09
2017-07-19T20:50:11.837Z,82.08
2017-07-19T20:52:40.936Z,81.49
2017-07-19T20:55:11.000Z,82.54
2017-07-19T20:57:40.084Z,82.49
2017-07-19T21:00:09.148Z,82.11
2017-07-19T21:02:38.200Z,82.95
2017-07-19T21:05:07.304Z,83.80
2017-07-19T21:07:36.376Z,83.52
2017-07-19T21:10:06.223Z,83.11
2017-07-19T21:12:35.302Z,82.88
2017-07-19T21:15:04.433Z,83.14
2017-07-19T21:17:33.464Z,82.82
2017-07-19T21:20:03.306Z,82.76
2017-07-19T21:22:34.277Z,82.90
2017-07-19T21:25:03.620Z,83.18
2017-07-19T21:27:32.652Z,82.93
2017-07-19T21:30:01.730Z,83.57
2017-07-19T21:32:30.772Z,83.17
2017-07-19T21:35:00.093Z,82.91
2017-07-19T21:37:29.160Z,82.66
2017-07-19T21:39:58.246Z,82.55
2017-07-19T21:42:27.380Z,82.23
2017-07-19T21:44:56.448Z,81.86
2017-07-19T21:47:25.512Z,83.09
2017-07-19T21:49:54.587Z,83.25
2017-07-19T21:52:24.765Z,83.21
2017-07-19T21:54:53.836Z,83.59
2017-07-19T21:57:22.904Z,83.61
2017-07-19T21:59:51.985Z,83.99
2017-07-19T22:02:21.825Z,83.78
2017-07-19T22:04:50.884Z,83.53
2017-07-19T22:07:19.941Z,84.46
2017-07-19T22:09:48.999Z,84.78
2017-07-19T22:12:18.097Z,85.66
2017-07-19T22:14:47.907Z,84.95
2017-07-19T22:17:17.053Z,85.18
2017-07-19T22:19:46.140Z,85.29
2017-07-19T22:22:15.234Z,85.37
2017-07-19T22:24:45.192Z,84.91
2017-07-19T22:27:15.060Z,84.97
2017-07-19T22:29:44.143Z,85.16
2017-07-19T22:32:13.225Z,85.15
2017-07-19T22:34:42.281Z,85.38
2017-07-19T22:37:11.369Z,84.94
2017-07-19T22:39:40.424Z,84.83
2017-07-19T22:42:09.502Z,84.50
2017-07-19T22:44:38.580Z,84.18
2017-07-19T22:47:08.380Z,84.71
2017-07-19T22:49:37.482Z,84.87
2017-07-19T22:52:06.548Z,84.70
2017-07-19T22:54:35.588Z,84.92
2017-07-19T22:57:04.664Z,84.53
2017-07-19T22:59:34.495Z,84.46
2017-07-19T23:02:04.336Z,84.54
2017-07-19T23:04:33.399Z,84.42
2017-07-19T23:07:02.453Z,85.00
2017-07-19T23:09:31.673Z,84.60
2017-07-19T23:12:00.780Z,84.55
2017-07-19T23:14:29.820Z,84.19
2017-07-19T23:16:58.889Z,84.36
2017-07-19T23:19:27.951Z,84.98
2017-07-19T23:21:57.053Z,83.27
2017-07-19T23:24:26.893Z,83.88
2017-07-19T23:26:55.974Z,83.51
2017-07-19T23:29:25.043Z,83.40
2017-07-19T23:31:54.863Z,83.11
2017-07-19T23:34:25.333Z,81.95
2017-07-19T23:36:54.425Z,83.09
2017-07-19T23:39:23.483Z,82.22
2017-07-19T23:41:52.549Z,82.17
2017-07-19T23:44:21.611Z,81.83
2017-07-19T23:46:50.772Z,81.74
2017-07-19T23:49:21.384Z,81.68
2017-07-19T23:51:52.384Z,82.14
2017-07-19T23:54:22.196Z,81.90
2017-07-19T23:56:53.857Z,82.34
2017-07-19T23:59:23.182Z,81.87
